sensor_id;sensor_type;location;lat;lon;timestamp;P1;durP1;ratioP1;P2;durP2;ratioP2
19623;SDS011;9959;49.798;9.928;2022-08-03T00:01:32;3.40;;;2.70;;
19623;SDS011;9959;49.798;9.928;2022-08-03T00:04:01;4.53;;;2.40;;
19623;SDS011;9959;49.798;9.928;2022-08-03T00:06:30;2.90;;;2.60;;
19623;SDS011;9959;49.798;9.928;2022-08-03T00:09:02;2.65;;;2.28;;
19623;SDS011;9959;49.798;9.928;2022-08-03T00:11:31;2.70;;;2.30;;
19623;SDS011;9959;49.798;9.928;2022-08-03T00:13:59;3.08;;;2.55;;
19623;SDS011;9959;49.798;9.928;2022-08-03T00:16:27;2.95;;;2.63;;
19623;SDS011;9959;49.798;9.928;2022-08-03T00:18:55;4.03;;;2.50;;
19623;SDS011;9959;49.798;9.928;2022-08-03T00:21:26;2.85;;;2.55;;
19623;SDS011;9959;49.798;9.928;2022-08-03T00:23:55;3.17;;;2.88;;
19623;SDS011;9959;49.798;9.928;2022-08-03T00:26:23;6.60;;;2.38;;
19623;SDS011;9959;49.798;9.928;2022-08-03T00:28:51;2.90;;;2.58;;
19623;SDS011;9959;49.798;9.928;2022-08-03T00:31:19;2.88;;;2.60;;
19623;SDS011;9959;49.798;9.928;2022-08-03T00:34:05;5.97;;;2.17;;
19623;SDS011;9959;49.798;9.928;2022-08-03T00:36:33;3.20;;;2.40;;
19623;SDS011;9959;49.798;9.928;2022-08-03T00:39:02;3.13;;;2.70;;
19623;SDS011;9959;49.798;9.928;2022-08-03T00:41:30;3.15;;;2.42;;
19623;SDS011;9959;49.798;9.928;2022-08-03T00:43:58;3.25;;;2.20;;
19623;SDS011;9959;49.798;9.928;2022-08-03T00:46:26;3.53;;;2.20;;
19623;SDS011;9959;49.798;9.928;2022-08-03T00:48:54;2.83;;;2.25;;
19623;SDS011;9959;49.798;9.928;2022-08-03T00:51:22;5.70;;;2.85;;
19623;SDS011;9959;49.798;9.928;2022-08-03T00:53:51;4.03;;;2.50;;
19623;SDS011;9959;49.798;9.928;2022-08-03T00:56:20;3.30;;;2.50;;
19623;SDS011;9959;49.798;9.928;2022-08-03T00:58:49;3.10;;;2.47;;
19623;SDS011;9959;49.798;9.928;2022-08-03T01:01:18;4.13;;;2.55;;
19623;SDS011;9959;49.798;9.928;2022-08-03T01:03:46;4.47;;;2.60;;
19623;SDS011;9959;49.798;9.928;2022-08-03T01:06:16;5.13;;;2.85;;
19623;SDS011;9959;49.798;9.928;2022-08-03T01:08:46;3.10;;;2.55;;
19623;SDS011;9959;49.798;9.928;2022-08-03T01:11:18;3.15;;;2.70;;
19623;SDS011;9959;49.798;9.928;2022-08-03T01:14:01;4.28;;;2.58;;
19623;SDS011;9959;49.798;9.928;2022-08-03T01:16:47;3.15;;;2.33;;
19623;SDS011;9959;49.798;9.928;2022-08-03T01:19:27;6.03;;;2.78;;
19623;SDS011;9959;49.798;9.928;2022-08-03T01:22:22;4.95;;;2.80;;
19623;SDS011;9959;49.798;9.928;2022-08-03T01:25:23;3.80;;;2.60;;
19623;SDS011;9959;49.798;9.928;2022-08-03T01:28:09;4.50;;;2.58;;
19623;SDS011;9959;49.798;9.928;2022-08-03T01:30:51;3.92;;;2.75;;
19623;SDS011;9959;49.798;9.928;2022-08-03T01:33:23;3.78;;;2.80;;
19623;SDS011;9959;49.798;9.928;2022-08-03T01:35:57;2.30;;;2.10;;
19623;SDS011;9959;49.798;9.928;2022-08-03T01:38:28;6.03;;;2.42;;
19623;SDS011;9959;49.798;9.928;2022-08-03T01:41:00;2.90;;;2.38;;
19623;SDS011;9959;49.798;9.928;2022-08-03T01:43:33;2.97;;;2.45;;
19623;SDS011;9959;49.798;9.928;2022-08-03T01:46:24;3.97;;;2.83;;
19623;SDS011;9959;49.798;9.928;2022-08-03T01:48:52;3.78;;;2.30;;
19623;SDS011;9959;49.798;9.928;2022-08-03T01:51:21;2.85;;;2.35;;
19623;SDS011;9959;49.798;9.928;2022-08-03T01:54:09;4.22;;;2.58;;
19623;SDS011;9959;49.798;9.928;2022-08-03T01:56:40;4.65;;;2.90;;
19623;SDS011;9959;49.798;9.928;2022-08-03T01:59:09;3.92;;;2.60;;
19623;SDS011;9959;49.798;9.928;2022-08-03T02:01:42;3.45;;;2.78;;
19623;SDS011;9959;49.798;9.928;2022-08-03T02:04:31;3.83;;;2.53;;
19623;SDS011;9959;49.798;9.928;2022-08-03T02:07:01;3.70;;;2.80;;
19623;SDS011;9959;49.798;9.928;2022-08-03T02:09:29;3.78;;;2.90;;
19623;SDS011;9959;49.798;9.928;2022-08-03T02:11:58;3.13;;;2.47;;
19623;SDS011;9959;49.798;9.928;2022-08-03T02:14:27;3.58;;;2.80;;
19623;SDS011;9959;49.798;9.928;2022-08-03T02:16:58;3.78;;;2.65;;
19623;SDS011;9959;49.798;9.928;2022-08-03T02:19:28;3.00;;;2.58;;
19623;SDS011;9959;49.798;9.928;2022-08-03T02:22:01;4.28;;;3.10;;
19623;SDS011;9959;49.798;9.928;2022-08-03T02:24:31;5.13;;;2.40;;
19623;SDS011;9959;49.798;9.928;2022-08-03T02:26:59;7.38;;;3.00;;
19623;SDS011;9959;49.798;9.928;2022-08-03T02:29:30;3.00;;;2.30;;
19623;SDS011;9959;49.798;9.928;2022-08-03T02:32:07;3.65;;;2.53;;
19623;SDS011;9959;49.798;9.928;2022-08-03T02:34:39;3.17;;;2.40;;
19623;SDS011;9959;49.798;9.928;2022-08-03T02:37:09;4.20;;;2.83;;
19623;SDS011;9959;49.798;9.928;2022-08-03T02:39:38;3.42;;;2.67;;
19623;SDS011;9959;49.798;9.928;2022-08-03T02:42:08;4.20;;;3.08;;
19623;SDS011;9959;49.798;9.928;2022-08-03T02:44:39;4.65;;;2.72;;
19623;SDS011;9959;49.798;9.928;2022-08-03T02:47:15;5.72;;;3.10;;
19623;SDS011;9959;49.798;9.928;2022-08-03T02:49:47;5.88;;;3.13;;
19623;SDS011;9959;49.798;9.928;2022-08-03T02:52:18;5.28;;;2.90;;
19623;SDS011;9959;49.798;9.928;2022-08-03T02:54:49;4.82;;;2.95;;
19623;SDS011;9959;49.798;9.928;2022-08-03T02:57:21;5.35;;;3.00;;
19623;SDS011;9959;49.798;9.928;2022-08-03T02:59:52;3.70;;;2.85;;
19623;SDS011;9959;49.798;9.928;2022-08-03T03:02:23;4.95;;;3.08;;
19623;SDS011;9959;49.798;9.928;2022-08-03T03:04:54;5.35;;;2.83;;
19623;SDS011;9959;49.798;9.928;2022-08-03T03:07:42;5.07;;;3.55;;
19623;SDS011;9959;49.798;9.928;2022-08-03T03:10:18;6.38;;;3.58;;
19623;SDS011;9959;49.798;9.928;2022-08-03T03:12:48;4.53;;;2.90;;
19623;SDS011;9959;49.798;9.928;2022-08-03T03:15:20;4.47;;;3.00;;
19623;SDS011;9959;49.798;9.928;2022-08-03T03:17:49;3.40;;;3.10;;
19623;SDS011;9959;49.798;9.928;2022-08-03T03:20:21;2.92;;;2.63;;
19623;SDS011;9959;49.798;9.928;2022-08-03T03:22:55;4.00;;;2.38;;
19623;SDS011;9959;49.798;9.928;2022-08-03T03:25:25;4.55;;;3.13;;
19623;SDS011;9959;49.798;9.928;2022-08-03T03:27:54;4.85;;;2.88;;
19623;SDS011;9959;49.798;9.928;2022-08-03T03:30:24;4.53;;;3.10;;
19623;SDS011;9959;49.798;9.928;2022-08-03T03:32:54;3.40;;;2.80;;
19623;SDS011;9959;49.798;9.928;2022-08-03T03:35:23;3.95;;;2.97;;
19623;SDS011;9959;49.798;9.928;2022-08-03T03:37:52;5.25;;;3.47;;
19623;SDS011;9959;49.798;9.928;2022-08-03T03:40:20;3.60;;;2.90;;
19623;SDS011;9959;49.798;9.928;2022-08-03T03:42:49;6.60;;;2.90;;
19623;SDS011;9959;49.798;9.928;2022-08-03T03:45:17;5.85;;;3.28;;
19623;SDS011;9959;49.798;9.928;2022-08-03T03:47:47;5.82;;;3.33;;
19623;SDS011;9959;49.798;9.928;2022-08-03T03:50:17;4.53;;;2.92;;
19623;SDS011;9959;49.798;9.928;2022-08-03T03:52:46;3.65;;;2.80;;
19623;SDS011;9959;49.798;9.928;2022-08-03T03:55:15;3.88;;;2.60;;
19623;SDS011;9959;49.798;9.928;2022-08-03T03:57:44;3.55;;;3.03;;
19623;SDS011;9959;49.798;9.928;2022-08-03T04:00:13;4.50;;;3.05;;
19623;SDS011;9959;49.798;9.928;2022-08-03T04:02:42;4.72;;;3.15;;
19623;SDS011;9959;49.798;9.928;2022-08-03T04:05:11;4.25;;;3.08;;
19623;SDS011;9959;49.798;9.928;2022-08-03T04:07:59;8.32;;;3.50;;
19623;SDS011;9959;49.798;9.928;2022-08-03T04:10:51;4.28;;;3.03;;
19623;SDS011;9959;49.798;9.928;2022-08-03T04:13:26;5.10;;;3.25;;
19623;SDS011;9959;49.798;9.928;2022-08-03T04:15:58;4.18;;;3.08;;
19623;SDS011;9959;49.798;9.928;2022-08-03T04:18:28;3.53;;;3.00;;
19623;SDS011;9959;49.798;9.928;2022-08-03T04:21:00;6.38;;;3.10;;
19623;SDS011;9959;49.798;9.928;2022-08-03T04:23:32;5.40;;;3.20;;
19623;SDS011;9959;49.798;9.928;2022-08-03T04:26:02;7.38;;;3.40;;
19623;SDS011;9959;49.798;9.928;2022-08-03T04:28:34;4.97;;;3.50;;
19623;SDS011;9959;49.798;9.928;2022-08-03T04:31:04;4.80;;;3.60;;
19623;SDS011;9959;49.798;9.928;2022-08-03T04:33:34;6.68;;;4.07;;
19623;SDS011;9959;49.798;9.928;2022-08-03T04:36:05;5.30;;;3.70;;
19623;SDS011;9959;49.798;9.928;2022-08-03T04:38:37;4.30;;;3.13;;
19623;SDS011;9959;49.798;9.928;2022-08-03T04:41:09;6.97;;;3.50;;
19623;SDS011;9959;49.798;9.928;2022-08-03T04:43:39;6.53;;;4.60;;
19623;SDS011;9959;49.798;9.928;2022-08-03T04:46:07;5.50;;;3.58;;
19623;SDS011;9959;49.798;9.928;2022-08-03T04:48:36;4.78;;;3.55;;
19623;SDS011;9959;49.798;9.928;2022-08-03T04:51:09;8.07;;;4.03;;
19623;SDS011;9959;49.798;9.928;2022-08-03T04:53:40;8.65;;;3.58;;
19623;SDS011;9959;49.798;9.928;2022-08-03T04:56:09;6.47;;;3.90;;
19623;SDS011;9959;49.798;9.928;2022-08-03T04:58:37;7.18;;;3.78;;
19623;SDS011;9959;49.798;9.928;2022-08-03T05:01:05;4.93;;;3.83;;
19623;SDS011;9959;49.798;9.928;2022-08-03T05:03:33;6.40;;;3.58;;
19623;SDS011;9959;49.798;9.928;2022-08-03T05:06:02;5.22;;;3.80;;
19623;SDS011;9959;49.798;9.928;2022-08-03T05:08:37;5.97;;;3.72;;
19623;SDS011;9959;49.798;9.928;2022-08-03T05:11:13;5.18;;;3.72;;
19623;SDS011;9959;49.798;9.928;2022-08-03T05:13:42;5.32;;;3.70;;
19623;SDS011;9959;49.798;9.928;2022-08-03T05:16:10;4.80;;;3.67;;
19623;SDS011;9959;49.798;9.928;2022-08-03T05:18:39;7.28;;;3.75;;
19623;SDS011;9959;49.798;9.928;2022-08-03T05:21:08;3.85;;;3.45;;
19623;SDS011;9959;49.798;9.928;2022-08-03T05:23:39;8.95;;;4.47;;
19623;SDS011;9959;49.798;9.928;2022-08-03T05:26:07;5.20;;;3.47;;
19623;SDS011;9959;49.798;9.928;2022-08-03T05:28:39;6.28;;;3.65;;
19623;SDS011;9959;49.798;9.928;2022-08-03T05:31:16;4.05;;;3.33;;
19623;SDS011;9959;49.798;9.928;2022-08-03T05:33:45;5.63;;;3.78;;
19623;SDS011;9959;49.798;9.928;2022-08-03T05:36:14;5.03;;;3.55;;
19623;SDS011;9959;49.798;9.928;2022-08-03T05:38:42;4.50;;;3.47;;
19623;SDS011;9959;49.798;9.928;2022-08-03T05:41:11;4.65;;;3.25;;
19623;SDS011;9959;49.798;9.928;2022-08-03T05:43:50;5.68;;;3.78;;
19623;SDS011;9959;49.798;9.928;2022-08-03T05:46:19;9.55;;;3.70;;
19623;SDS011;9959;49.798;9.928;2022-08-03T05:48:48;4.72;;;3.17;;
19623;SDS011;9959;49.798;9.928;2022-08-03T05:51:16;4.78;;;3.58;;
19623;SDS011;9959;49.798;9.928;2022-08-03T05:53:44;4.13;;;3.47;;
19623;SDS011;9959;49.798;9.928;2022-08-03T05:56:13;5.20;;;3.10;;
19623;SDS011;9959;49.798;9.928;2022-08-03T05:58:43;4.07;;;3.45;;
19623;SDS011;9959;49.798;9.928;2022-08-03T06:01:13;5.95;;;3.50;;
19623;SDS011;9959;49.798;9.928;2022-08-03T06:03:42;4.57;;;3.58;;
19623;SDS011;9959;49.798;9.928;2022-08-03T06:06:10;4.43;;;3.17;;
19623;SDS011;9959;49.798;9.928;2022-08-03T06:08:38;3.97;;;3.30;;
19623;SDS011;9959;49.798;9.928;2022-08-03T06:11:06;5.65;;;3.38;;
19623;SDS011;9959;49.798;9.928;2022-08-03T06:13:35;6.85;;;3.90;;
19623;SDS011;9959;49.798;9.928;2022-08-03T06:16:03;4.90;;;3.47;;
19623;SDS011;9959;49.798;9.928;2022-08-03T06:18:33;6.72;;;3.78;;
19623;SDS011;9959;49.798;9.928;2022-08-03T06:21:02;6.97;;;2.95;;
19623;SDS011;9959;49.798;9.928;2022-08-03T06:23:41;4.93;;;3.42;;
19623;SDS011;9959;49.798;9.928;2022-08-03T06:26:21;5.22;;;3.00;;
19623;SDS011;9959;49.798;9.928;2022-08-03T06:28:53;5.88;;;3.38;;
19623;SDS011;9959;49.798;9.928;2022-08-03T06:31:22;5.75;;;3.05;;
19623;SDS011;9959;49.798;9.928;2022-08-03T06:34:00;4.53;;;3.80;;
19623;SDS011;9959;49.798;9.928;2022-08-03T06:36:50;4.95;;;3.10;;
19623;SDS011;9959;49.798;9.928;2022-08-03T06:39:27;5.88;;;3.13;;
19623;SDS011;9959;49.798;9.928;2022-08-03T06:41:55;5.50;;;2.80;;
19623;SDS011;9959;49.798;9.928;2022-08-03T06:44:23;6.30;;;2.88;;
19623;SDS011;9959;49.798;9.928;2022-08-03T06:46:51;6.55;;;3.08;;
19623;SDS011;9959;49.798;9.928;2022-08-03T06:49:20;5.18;;;2.97;;
19623;SDS011;9959;49.798;9.928;2022-08-03T06:51:48;6.15;;;3.35;;
19623;SDS011;9959;49.798;9.928;2022-08-03T06:54:31;4.82;;;3.45;;
19623;SDS011;9959;49.798;9.928;2022-08-03T06:57:01;5.13;;;3.67;;
19623;SDS011;9959;49.798;9.928;2022-08-03T06:59:29;3.40;;;2.97;;
19623;SDS011;9959;49.798;9.928;2022-08-03T07:02:17;5.10;;;2.90;;
19623;SDS011;9959;49.798;9.928;2022-08-03T07:04:47;10.80;;;3.50;;
19623;SDS011;9959;49.798;9.928;2022-08-03T07:07:15;2.90;;;2.40;;
19623;SDS011;9959;49.798;9.928;2022-08-03T07:09:44;8.27;;;3.45;;
19623;SDS011;9959;49.798;9.928;2022-08-03T07:12:23;4.22;;;2.95;;
19623;SDS011;9959;49.798;9.928;2022-08-03T07:14:53;6.82;;;3.65;;
19623;SDS011;9959;49.798;9.928;2022-08-03T07:17:27;5.03;;;3.35;;
19623;SDS011;9959;49.798;9.928;2022-08-03T07:19:58;6.38;;;3.20;;
19623;SDS011;9959;49.798;9.928;2022-08-03T07:22:27;4.50;;;3.22;;
19623;SDS011;9959;49.798;9.928;2022-08-03T07:24:55;3.45;;;3.00;;
19623;SDS011;9959;49.798;9.928;2022-08-03T07:27:23;4.70;;;3.00;;
19623;SDS011;9959;49.798;9.928;2022-08-03T07:29:54;13.18;;;3.45;;
19623;SDS011;9959;49.798;9.928;2022-08-03T07:32:24;8.70;;;3.30;;
19623;SDS011;9959;49.798;9.928;2022-08-03T07:34:53;3.30;;;2.72;;
19623;SDS011;9959;49.798;9.928;2022-08-03T07:37:27;9.13;;;3.15;;
19623;SDS011;9959;49.798;9.928;2022-08-03T07:39:56;6.05;;;2.55;;
19623;SDS011;9959;49.798;9.928;2022-08-03T07:42:24;6.30;;;3.05;;
19623;SDS011;9959;49.798;9.928;2022-08-03T07:44:53;5.45;;;3.30;;
19623;SDS011;9959;49.798;9.928;2022-08-03T07:47:21;3.25;;;2.75;;
19623;SDS011;9959;49.798;9.928;2022-08-03T07:50:01;8.68;;;3.97;;
19623;SDS011;9959;49.798;9.928;2022-08-03T07:52:31;6.78;;;3.38;;
19623;SDS011;9959;49.798;9.928;2022-08-03T07:55:19;7.95;;;3.10;;
19623;SDS011;9959;49.798;9.928;2022-08-03T07:57:57;7.15;;;2.92;;
19623;SDS011;9959;49.798;9.928;2022-08-03T08:00:29;4.68;;;2.65;;
19623;SDS011;9959;49.798;9.928;2022-08-03T08:02:57;4.47;;;2.50;;
19623;SDS011;9959;49.798;9.928;2022-08-03T08:05:25;17.80;;;3.10;;
19623;SDS011;9959;49.798;9.928;2022-08-03T08:07:54;3.92;;;3.42;;
19623;SDS011;9959;49.798;9.928;2022-08-03T08:10:22;4.53;;;2.60;;
19623;SDS011;9959;49.798;9.928;2022-08-03T08:12:50;3.10;;;2.65;;
19623;SDS011;9959;49.798;9.928;2022-08-03T08:15:18;3.92;;;2.60;;
19623;SDS011;9959;49.798;9.928;2022-08-03T08:17:47;3.30;;;2.67;;
19623;SDS011;9959;49.798;9.928;2022-08-03T08:20:16;9.77;;;2.53;;
19623;SDS011;9959;49.798;9.928;2022-08-03T08:22:58;2.75;;;2.30;;
19623;SDS011;9959;49.798;9.928;2022-08-03T08:25:29;3.67;;;2.20;;
19623;SDS011;9959;49.798;9.928;2022-08-03T08:27:58;2.65;;;2.42;;
19623;SDS011;9959;49.798;9.928;2022-08-03T08:30:47;4.68;;;2.22;;
19623;SDS011;9959;49.798;9.928;2022-08-03T08:33:16;5.90;;;2.85;;
19623;SDS011;9959;49.798;9.928;2022-08-03T08:35:49;4.35;;;2.83;;
19623;SDS011;9959;49.798;9.928;2022-08-03T08:38:19;3.40;;;2.22;;
19623;SDS011;9959;49.798;9.928;2022-08-03T08:40:48;3.13;;;2.30;;
19623;SDS011;9959;49.798;9.928;2022-08-03T08:43:16;6.15;;;2.80;;
19623;SDS011;9959;49.798;9.928;2022-08-03T08:45:45;5.43;;;3.33;;
19623;SDS011;9959;49.798;9.928;2022-08-03T08:48:17;3.88;;;2.45;;
19623;SDS011;9959;49.798;9.928;2022-08-03T08:50:51;4.50;;;2.40;;
19623;SDS011;9959;49.798;9.928;2022-08-03T08:53:21;4.00;;;2.53;;
19623;SDS011;9959;49.798;9.928;2022-08-03T08:55:52;4.28;;;3.17;;
19623;SDS011;9959;49.798;9.928;2022-08-03T08:58:27;2.78;;;2.40;;
19623;SDS011;9959;49.798;9.928;2022-08-03T09:00:57;4.85;;;2.40;;
19623;SDS011;9959;49.798;9.928;2022-08-03T09:03:26;5.13;;;2.47;;
19623;SDS011;9959;49.798;9.928;2022-08-03T09:05:57;2.70;;;2.50;;
19623;SDS011;9959;49.798;9.928;2022-08-03T09:08:27;3.35;;;2.63;;
19623;SDS011;9959;49.798;9.928;2022-08-03T09:10:56;4.03;;;2.38;;
19623;SDS011;9959;49.798;9.928;2022-08-03T09:13:24;4.30;;;2.60;;
19623;SDS011;9959;49.798;9.928;2022-08-03T09:16:08;4.20;;;2.83;;
19623;SDS011;9959;49.798;9.928;2022-08-03T09:18:38;2.50;;;2.30;;
19623;SDS011;9959;49.798;9.928;2022-08-03T09:21:16;5.78;;;2.58;;
19623;SDS011;9959;49.798;9.928;2022-08-03T09:23:59;4.18;;;2.55;;
19623;SDS011;9959;49.798;9.928;2022-08-03T09:26:32;5.13;;;2.95;;
19623;SDS011;9959;49.798;9.928;2022-08-03T09:29:02;2.97;;;2.22;;
19623;SDS011;9959;49.798;9.928;2022-08-03T09:31:41;3.17;;;2.60;;
19623;SDS011;9959;49.798;9.928;2022-08-03T09:34:11;3.67;;;2.70;;
19623;SDS011;9959;49.798;9.928;2022-08-03T09:36:41;2.40;;;2.20;;
19623;SDS011;9959;49.798;9.928;2022-08-03T09:39:13;4.63;;;2.72;;
19623;SDS011;9959;49.798;9.928;2022-08-03T09:41:44;2.92;;;2.42;;
19623;SDS011;9959;49.798;9.928;2022-08-03T09:44:14;2.55;;;2.38;;
19623;SDS011;9959;49.798;9.928;2022-08-03T09:46:52;5.53;;;3.20;;
19623;SDS011;9959;49.798;9.928;2022-08-03T09:49:21;4.20;;;2.78;;
19623;SDS011;9959;49.798;9.928;2022-08-03T09:51:50;4.28;;;2.50;;
19623;SDS011;9959;49.798;9.928;2022-08-03T09:54:40;2.78;;;2.58;;
19623;SDS011;9959;49.798;9.928;2022-08-03T09:57:18;3.85;;;2.50;;
19623;SDS011;9959;49.798;9.928;2022-08-03T09:59:48;4.13;;;2.72;;
19623;SDS011;9959;49.798;9.928;2022-08-03T10:02:21;2.53;;;2.33;;
19623;SDS011;9959;49.798;9.928;2022-08-03T10:04:51;2.67;;;2.47;;
19623;SDS011;9959;49.798;9.928;2022-08-03T10:07:21;4.53;;;2.78;;
19623;SDS011;9959;49.798;9.928;2022-08-03T10:09:53;8.10;;;2.35;;
19623;SDS011;9959;49.798;9.928;2022-08-03T10:12:23;4.97;;;2.45;;
19623;SDS011;9959;49.798;9.928;2022-08-03T10:14:52;4.80;;;2.35;;
19623;SDS011;9959;49.798;9.928;2022-08-03T10:17:21;5.30;;;2.67;;
19623;SDS011;9959;49.798;9.928;2022-08-03T10:19:49;3.17;;;2.40;;
19623;SDS011;9959;49.798;9.928;2022-08-03T10:22:18;2.55;;;2.35;;
19623;SDS011;9959;49.798;9.928;2022-08-03T10:24:50;3.28;;;2.22;;
19623;SDS011;9959;49.798;9.928;2022-08-03T10:27:23;6.18;;;3.22;;
19623;SDS011;9959;49.798;9.928;2022-08-03T10:29:52;4.32;;;2.40;;
19623;SDS011;9959;49.798;9.928;2022-08-03T10:32:23;2.42;;;2.22;;
19623;SDS011;9959;49.798;9.928;2022-08-03T10:34:57;5.93;;;2.92;;
19623;SDS011;9959;49.798;9.928;2022-08-03T10:37:48;3.28;;;2.65;;
19623;SDS011;9959;49.798;9.928;2022-08-03T10:40:23;2.60;;;2.40;;
19623;SDS011;9959;49.798;9.928;2022-08-03T10:43:17;2.95;;;2.22;;
19623;SDS011;9959;49.798;9.928;2022-08-03T10:45:46;5.10;;;2.55;;
19623;SDS011;9959;49.798;9.928;2022-08-03T10:48:14;3.95;;;2.33;;
19623;SDS011;9959;49.798;9.928;2022-08-03T10:50:44;2.53;;;2.33;;
19623;SDS011;9959;49.798;9.928;2022-08-03T10:53:13;3.55;;;2.53;;
19623;SDS011;9959;49.798;9.928;2022-08-03T10:55:44;3.13;;;2.35;;
19623;SDS011;9959;49.798;9.928;2022-08-03T10:58:46;2.63;;;2.42;;
19623;SDS011;9959;49.798;9.928;2022-08-03T11:04:25;2.72;;;2.35;;
19623;SDS011;9959;49.798;9.928;2022-08-03T11:09:46;6.25;;;2.55;;
19623;SDS011;9959;49.798;9.928;2022-08-03T11:12:23;2.75;;;2.40;;
19623;SDS011;9959;49.798;9.928;2022-08-03T11:14:57;3.72;;;2.80;;
19623;SDS011;9959;49.798;9.928;2022-08-03T11:17:26;3.50;;;3.05;;
19623;SDS011;9959;49.798;9.928;2022-08-03T11:19:54;3.17;;;2.63;;
19623;SDS011;9959;49.798;9.928;2022-08-03T11:22:24;2.47;;;2.28;;
19623;SDS011;9959;49.798;9.928;2022-08-03T11:24:57;3.10;;;2.40;;
19623;SDS011;9959;49.798;9.928;2022-08-03T11:27:30;4.82;;;3.08;;
19623;SDS011;9959;49.798;9.928;2022-08-03T11:30:00;2.60;;;2.40;;
19623;SDS011;9959;49.798;9.928;2022-08-03T11:35:29;4.07;;;2.50;;
19623;SDS011;9959;49.798;9.928;2022-08-03T11:38:05;2.45;;;2.20;;
19623;SDS011;9959;49.798;9.928;2022-08-03T11:40:36;2.28;;;2.08;;
19623;SDS011;9959;49.798;9.928;2022-08-03T11:43:07;2.58;;;2.38;;
19623;SDS011;9959;49.798;9.928;2022-08-03T11:45:37;2.58;;;2.35;;
19623;SDS011;9959;49.798;9.928;2022-08-03T11:48:12;3.10;;;2.80;;
19623;SDS011;9959;49.798;9.928;2022-08-03T11:50:42;2.90;;;2.70;;
19623;SDS011;9959;49.798;9.928;2022-08-03T11:53:14;2.80;;;2.60;;
19623;SDS011;9959;49.798;9.928;2022-08-03T11:55:44;2.65;;;2.45;;
19623;SDS011;9959;49.798;9.928;2022-08-03T11:58:19;2.50;;;2.30;;
19623;SDS011;9959;49.798;9.928;2022-08-03T12:01:08;2.40;;;2.20;;
19623;SDS011;9959;49.798;9.928;2022-08-03T12:03:37;3.15;;;2.45;;
19623;SDS011;9959;49.798;9.928;2022-08-03T12:06:08;3.20;;;2.90;;
19623;SDS011;9959;49.798;9.928;2022-08-03T12:08:36;2.90;;;2.70;;
19623;SDS011;9959;49.798;9.928;2022-08-03T12:11:06;2.70;;;2.50;;
19623;SDS011;9959;49.798;9.928;2022-08-03T12:13:38;4.50;;;2.72;;
19623;SDS011;9959;49.798;9.928;2022-08-03T12:16:27;5.10;;;2.45;;
19623;SDS011;9959;49.798;9.928;2022-08-03T12:18:56;3.75;;;2.50;;
19623;SDS011;9959;49.798;9.928;2022-08-03T12:21:25;6.63;;;2.58;;
19623;SDS011;9959;49.798;9.928;2022-08-03T12:23:56;3.30;;;2.95;;
19623;SDS011;9959;49.798;9.928;2022-08-03T12:26:26;3.70;;;2.38;;
19623;SDS011;9959;49.798;9.928;2022-08-03T12:28:56;2.97;;;2.53;;
19623;SDS011;9959;49.798;9.928;2022-08-03T12:31:24;2.63;;;2.42;;
19623;SDS011;9959;49.798;9.928;2022-08-03T12:33:56;2.40;;;2.20;;
19623;SDS011;9959;49.798;9.928;2022-08-03T12:36:27;2.67;;;2.42;;
19623;SDS011;9959;49.798;9.928;2022-08-03T12:38:58;3.28;;;3.05;;
19623;SDS011;9959;49.798;9.928;2022-08-03T12:41:28;4.15;;;2.38;;
19623;SDS011;9959;49.798;9.928;2022-08-03T12:44:00;5.50;;;2.40;;
19623;SDS011;9959;49.798;9.928;2022-08-03T12:46:30;5.75;;;2.58;;
19623;SDS011;9959;49.798;9.928;2022-08-03T12:49:04;3.55;;;2.30;;
19623;SDS011;9959;49.798;9.928;2022-08-03T12:51:35;5.07;;;3.20;;
19623;SDS011;9959;49.798;9.928;2022-08-03T12:54:04;4.50;;;2.70;;
19623;SDS011;9959;49.798;9.928;2022-08-03T12:56:32;3.75;;;2.55;;
19623;SDS011;9959;49.798;9.928;2022-08-03T13:01:57;2.70;;;2.50;;
19623;SDS011;9959;49.798;9.928;2022-08-03T13:04:26;2.40;;;2.13;;
19623;SDS011;9959;49.798;9.928;2022-08-03T13:06:55;4.05;;;3.15;;
19623;SDS011;9959;49.798;9.928;2022-08-03T13:09:28;2.25;;;2.15;;
19623;SDS011;9959;49.798;9.928;2022-08-03T13:12:03;5.80;;;2.65;;
19623;SDS011;9959;49.798;9.928;2022-08-03T13:14:35;3.38;;;2.88;;
19623;SDS011;9959;49.798;9.928;2022-08-03T13:17:03;2.50;;;2.30;;
19623;SDS011;9959;49.798;9.928;2022-08-03T13:19:32;2.70;;;2.50;;
19623;SDS011;9959;49.798;9.928;2022-08-03T13:22:09;4.43;;;2.50;;
19623;SDS011;9959;49.798;9.928;2022-08-03T13:24:38;2.22;;;2.08;;
19623;SDS011;9959;49.798;9.928;2022-08-03T13:27:06;2.80;;;2.60;;
19623;SDS011;9959;49.798;9.928;2022-08-03T13:29:55;2.42;;;2.22;;
19623;SDS011;9959;49.798;9.928;2022-08-03T13:32:23;2.97;;;2.78;;
19623;SDS011;9959;49.798;9.928;2022-08-03T13:34:51;2.75;;;2.55;;
19623;SDS011;9959;49.798;9.928;2022-08-03T13:37:19;3.33;;;2.50;;
19623;SDS011;9959;49.798;9.928;2022-08-03T13:39:48;4.38;;;2.70;;
19623;SDS011;9959;49.798;9.928;2022-08-03T13:42:25;3.10;;;2.80;;
19623;SDS011;9959;49.798;9.928;2022-08-03T13:44:55;3.65;;;2.65;;
19623;SDS011;9959;49.798;9.928;2022-08-03T13:47:23;2.83;;;2.63;;
19623;SDS011;9959;49.798;9.928;2022-08-03T13:49:51;2.65;;;2.45;;
19623;SDS011;9959;49.798;9.928;2022-08-03T13:52:25;2.60;;;2.40;;
19623;SDS011;9959;49.798;9.928;2022-08-03T13:54:53;2.78;;;2.58;;
19623;SDS011;9959;49.798;9.928;2022-08-03T13:57:21;4.45;;;2.70;;
19623;SDS011;9959;49.798;9.928;2022-08-03T14:00:11;2.55;;;2.40;;
19623;SDS011;9959;49.798;9.928;2022-08-03T14:02:41;2.88;;;2.67;;
19623;SDS011;9959;49.798;9.928;2022-08-03T14:05:10;2.90;;;2.60;;
19623;SDS011;9959;49.798;9.928;2022-08-03T14:07:38;2.90;;;2.70;;
19623;SDS011;9959;49.798;9.928;2022-08-03T14:10:06;8.95;;;2.90;;
19623;SDS011;9959;49.798;9.928;2022-08-03T14:12:35;2.90;;;2.70;;
19623;SDS011;9959;49.798;9.928;2022-08-03T14:15:04;3.63;;;3.28;;
19623;SDS011;9959;49.798;9.928;2022-08-03T14:17:36;2.58;;;2.25;;
19623;SDS011;9959;49.798;9.928;2022-08-03T14:20:15;2.92;;;2.72;;
19623;SDS011;9959;49.798;9.928;2022-08-03T14:23:02;2.83;;;2.60;;
19623;SDS011;9959;49.798;9.928;2022-08-03T14:25:31;2.90;;;2.42;;
19623;SDS011;9959;49.798;9.928;2022-08-03T14:28:09;2.70;;;2.50;;
19623;SDS011;9959;49.798;9.928;2022-08-03T14:30:37;3.33;;;3.00;;
19623;SDS011;9959;49.798;9.928;2022-08-03T14:33:07;2.63;;;2.42;;
19623;SDS011;9959;49.798;9.928;2022-08-03T14:35:35;2.58;;;2.38;;
19623;SDS011;9959;49.798;9.928;2022-08-03T14:38:03;3.65;;;2.80;;
19623;SDS011;9959;49.798;9.928;2022-08-03T14:40:31;2.60;;;2.40;;
19623;SDS011;9959;49.798;9.928;2022-08-03T14:42:59;2.95;;;2.50;;
19623;SDS011;9959;49.798;9.928;2022-08-03T14:45:27;2.22;;;2.00;;
19623;SDS011;9959;49.798;9.928;2022-08-03T14:47:55;2.90;;;2.70;;
19623;SDS011;9959;49.798;9.928;2022-08-03T14:50:46;2.65;;;2.47;;
19623;SDS011;9959;49.798;9.928;2022-08-03T14:53:17;2.58;;;2.38;;
19623;SDS011;9959;49.798;9.928;2022-08-03T14:55:45;2.92;;;2.72;;
19623;SDS011;9959;49.798;9.928;2022-08-03T14:58:16;2.90;;;2.60;;
19623;SDS011;9959;49.798;9.928;2022-08-03T15:00:46;2.72;;;2.53;;
19623;SDS011;9959;49.798;9.928;2022-08-03T15:03:15;2.55;;;2.35;;
19623;SDS011;9959;49.798;9.928;2022-08-03T15:05:47;2.70;;;2.50;;
19623;SDS011;9959;49.798;9.928;2022-08-03T15:08:15;2.60;;;2.40;;
19623;SDS011;9959;49.798;9.928;2022-08-03T15:10:43;2.58;;;2.38;;
19623;SDS011;9959;49.798;9.928;2022-08-03T15:13:11;3.65;;;2.78;;
19623;SDS011;9959;49.798;9.928;2022-08-03T15:15:39;2.67;;;2.50;;
19623;SDS011;9959;49.798;9.928;2022-08-03T15:18:08;2.47;;;2.30;;
19623;SDS011;9959;49.798;9.928;2022-08-03T15:20:36;2.70;;;2.50;;
19623;SDS011;9959;49.798;9.928;2022-08-03T15:23:12;2.55;;;2.35;;
19623;SDS011;9959;49.798;9.928;2022-08-03T15:25:41;2.63;;;2.45;;
19623;SDS011;9959;49.798;9.928;2022-08-03T15:28:30;2.50;;;2.30;;
19623;SDS011;9959;49.798;9.928;2022-08-03T15:30:58;3.00;;;2.80;;
19623;SDS011;9959;49.798;9.928;2022-08-03T15:33:26;3.75;;;2.50;;
19623;SDS011;9959;49.798;9.928;2022-08-03T15:35:55;2.92;;;2.55;;
19623;SDS011;9959;49.798;9.928;2022-08-03T15:38:24;2.67;;;2.47;;
19623;SDS011;9959;49.798;9.928;2022-08-03T15:40:52;2.80;;;2.60;;